Time;durP1;ratioP1;P1;durP2;ratioP2;P2;SDS_P1;SDS_P2;PMS_P1;PMS_P2;Temp;Humidity;BMP_temperature;BMP_pressure;BME280_temperature;BME280_humidity;BME280_pressure;Samples;Min_cycle;Max_cycle;Signal;HPM_P1;HPM_P2
2023/07/06 00:01:21;;;;;;;;;;;;;;;22.87;63.30;98024.78;5086710;28;19924;-73
2023/07/06 00:03:50;;;;;;;;;;;;;;;22.62;64.88;98026.66;5093878;28;19930;-73
2023/07/06 00:06:16;;;;;;;;;;;;;;;22.62;66.05;98032.13;5093822;28;19925;-74
2023/07/06 00:08:43;;;;;;;;;;;;;;;22.71;65.44;98018.44;5094129;28;19924;-74
2023/07/06 00:11:10;;;;;;;;;;;;;;;22.83;65.33;98021.94;5093922;28;19924;-74
2023/07/06 00:13:37;;;;;;;;;;;;;;;22.92;64.75;98025.34;5094565;28;19988;-74
2023/07/06 00:16:03;;;;;;;;;;;;;;;22.67;66.41;98022.94;5084202;28;19935;-74
2023/07/06 00:18:30;;;;;;;;;;;;;;;22.40;67.33;98025.16;5093658;28;19924;-73
2023/07/06 00:20:58;;;;;;;;;;;;;;;22.28;69.35;98019.66;5093684;28;19964;-74
2023/07/06 00:23:25;;;;;;;;;;;;;;;22.65;68.41;98022.47;5093620;28;19932;-74
2023/07/06 00:25:52;;;;;;;;;;;;;;;22.94;67.16;98011.38;5093514;28;19983;-74
2023/07/06 00:28:23;;;;;;;;;;;;;;;23.20;65.87;98008.31;5093439;28;20346;-74
2023/07/06 00:30:55;;;;;;;;;;;;;;;23.34;65.24;98009.53;5084828;28;20040;-74
2023/07/06 00:33:23;;;;;;;;;;;;;;;23.42;64.83;97999.69;5085331;28;19924;-74
2023/07/06 00:35:49;;;;;;;;;;;;;;;23.45;64.12;98010.69;5093424;28;20003;-74
2023/07/06 00:38:19;;;;;;;;;;;;;;;23.49;64.00;98011.56;5093230;28;19924;-73
2023/07/06 00:40:46;;;;;;;;;;;;;;;23.51;63.55;98020.22;5093472;28;19929;-73
2023/07/06 00:43:15;;;;;;;;;;;;;;;23.53;62.83;98023.38;5093422;28;19924;-73
2023/07/06 00:45:42;;;;;;;;;;;;;;;23.53;62.75;98017.13;5083801;28;19947;-73
2023/07/06 00:48:12;;;;;;;;;;;;;;;23.52;62.27;98024.50;5093266;28;19924;-73
2023/07/06 00:50:39;;;;;;;;;;;;;;;23.48;62.32;98026.34;5093174;28;19951;-73
2023/07/06 00:53:07;;;;;;;;;;;;;;;23.46;61.99;98017.72;5093286;28;19954;-73
2023/07/06 00:55:40;;;;;;;;;;;;;;;23.43;61.81;98023.84;5093621;28;19982;-74
2023/07/06 00:58:08;;;;;;;;;;;;;;;23.37;61.44;98019.75;5097935;28;19971;-74
2023/07/06 01:00:35;;;;;;;;;;;;;;;23.40;61.11;98027.25;5099845;28;19923;-74
2023/07/06 01:03:02;;;;;;;;;;;;;;;23.40;60.91;98029.19;5099903;28;19952;-74
2023/07/06 01:05:30;;;;;;;;;;;;;;;23.39;61.00;98022.97;5099003;28;19951;-74
2023/07/06 01:08:03;;;;;;;;;;;;;;;23.35;60.83;98016.56;5093128;28;19924;-74
2023/07/06 01:10:29;;;;;;;;;;;;;;;23.36;60.94;98023.63;5092816;28;19928;-74
2023/07/06 01:12:57;;;;;;;;;;;;;;;23.37;60.82;98019.75;5092493;28;20412;-73
2023/07/06 01:15:25;;;;;;;;;;;;;;;23.34;60.71;98017.69;5092419;28;19929;-73
2023/07/06 01:17:54;;;;;;;;;;;;;;;23.32;60.83;98022.72;5092377;28;19924;-73
2023/07/06 01:20:26;;;;;;;;;;;;;;;23.30;60.88;98014.09;5077176;28;19924;-73
2023/07/06 01:23:18;;;;;;;;;;;;;;;23.29;60.94;98007.06;5092124;28;19925;-73
2023/07/06 01:25:52;;;;;;;;;;;;;;;23.29;60.74;98026.13;5086365;28;19988;-73
2023/07/06 01:28:31;;;;;;;;;;;;;;;23.28;60.89;98027.25;5078518;28;19925;-73
2023/07/06 01:31:12;;;;;;;;;;;;;;;23.26;60.95;98023.28;5089100;28;19991;-73
2023/07/06 01:33:41;;;;;;;;;;;;;;;23.27;60.67;98031.13;5066101;28;19928;-73
2023/07/06 01:36:13;;;;;;;;;;;;;;;23.22;60.57;98023.16;5082600;28;19940;-73
2023/07/06 01:38:41;;;;;;;;;;;;;;;23.20;60.69;98009.09;5092168;28;19956;-73
2023/07/06 01:41:10;;;;;;;;;;;;;;;23.17;60.50;98023.41;5083091;28;19970;-73
2023/07/06 01:43:37;;;;;;;;;;;;;;;23.12;60.51;98018.97;5082609;28;19943;-73
2023/07/06 01:46:03;;;;;;;;;;;;;;;23.13;60.34;98014.34;5091626;28;19970;-73
2023/07/06 01:48:30;;;;;;;;;;;;;;;23.12;60.16;98023.63;5091443;28;19936;-73
2023/07/06 01:51:06;;;;;;;;;;;;;;;22.98;60.43;98032.16;5090213;28;19935;-73
2023/07/06 01:53:38;;;;;;;;;;;;;;;22.99;60.20;98031.00;5091445;28;19928;-73
2023/07/06 01:56:06;;;;;;;;;;;;;;;23.01;60.46;98030.69;5081990;28;19932;-73
2023/07/06 01:58:34;;;;;;;;;;;;;;;22.97;60.54;98037.94;5098453;28;19925;-73
2023/07/06 02:01:03;;;;;;;;;;;;;;;23.01;60.54;98033.41;5091202;28;19932;-73
2023/07/06 02:03:30;;;;;;;;;;;;;;;23.01;60.73;98031.47;5091164;28;19952;-73
2023/07/06 02:05:57;;;;;;;;;;;;;;;22.80;60.90;98030.81;5091091;28;20331;-74
2023/07/06 02:08:26;;;;;;;;;;;;;;;22.30;61.74;98022.84;5091319;28;19935;-73
2023/07/06 02:10:53;;;;;;;;;;;;;;;22.26;62.90;98027.38;5090922;28;19924;-73
2023/07/06 02:13:20;;;;;;;;;;;;;;;22.28;63.09;98021.59;5082736;28;19960;-74
2023/07/06 02:15:46;;;;;;;;;;;;;;;22.30;63.39;98022.06;5091111;28;19974;-74
2023/07/06 02:18:12;;;;;;;;;;;;;;;22.13;64.09;98017.56;5091009;28;19925;-73
2023/07/06 02:20:39;;;;;;;;;;;;;;;21.74;66.01;98023.50;5091900;28;19928;-74
2023/07/06 02:23:07;;;;;;;;;;;;;;;21.66;67.70;98016.25;5092196;28;20298;-74
2023/07/06 02:25:35;;;;;;;;;;;;;;;21.49;69.89;98025.31;5092160;28;19931;-73
2023/07/06 02:28:02;;;;;;;;;;;;;;;21.57;70.93;98026.38;5091972;28;19924;-73
2023/07/06 02:30:29;;;;;;;;;;;;;;;21.92;69.30;98020.34;5090911;28;19928;-74
2023/07/06 02:32:56;;;;;;;;;;;;;;;22.19;67.83;98018.97;5090775;28;19934;-74
2023/07/06 02:35:22;;;;;;;;;;;;;;;22.36;67.23;98020.72;5090610;28;19925;-74
2023/07/06 02:37:48;;;;;;;;;;;;;;;22.49;66.45;98025.06;5081116;28;19928;-74
2023/07/06 02:40:17;;;;;;;;;;;;;;;22.57;66.12;98024.16;5081151;28;19928;-74
2023/07/06 02:42:45;;;;;;;;;;;;;;;22.59;65.83;98019.94;5090868;28;19925;-74
2023/07/06 02:45:12;;;;;;;;;;;;;;;22.63;65.58;98022.00;5090767;28;19920;-73
2023/07/06 02:47:40;;;;;;;;;;;;;;;22.64;65.35;98020.88;5090837;28;19928;-73
2023/07/06 02:50:10;;;;;;;;;;;;;;;22.65;65.30;98017.03;5080853;28;19924;-73
2023/07/06 02:52:37;;;;;;;;;;;;;;;22.62;65.35;98014.97;5090532;28;19925;-73
2023/07/06 02:55:03;;;;;;;;;;;;;;;22.58;65.56;98014.84;5090573;28;20064;-73
2023/07/06 02:57:31;;;;;;;;;;;;;;;22.56;65.64;98017.13;5090590;28;19924;-73
2023/07/06 02:59:59;;;;;;;;;;;;;;;22.58;65.60;98023.81;5090703;28;20007;-73
2023/07/06 03:02:25;;;;;;;;;;;;;;;22.59;65.71;98022.66;5084914;28;19974;-73
2023/07/06 03:04:53;;;;;;;;;;;;;;;22.53;65.79;98024.03;5086690;28;19935;-73
2023/07/06 03:07:19;;;;;;;;;;;;;;;22.49;66.27;98034.03;5090476;28;19936;-73
2023/07/06 03:09:46;;;;;;;;;;;;;;;22.51;66.11;98028.22;5090984;28;19939;-73
2023/07/06 03:12:14;;;;;;;;;;;;;;;22.51;65.86;98031.75;5090558;28;19950;-73
2023/07/06 03:14:40;;;;;;;;;;;;;;;22.36;66.47;98035.13;5082687;28;19925;-73
2023/07/06 03:17:08;;;;;;;;;;;;;;;22.34;66.59;98033.88;5088494;28;19956;-73
2023/07/06 03:19:38;;;;;;;;;;;;;;;22.21;67.51;98041.19;5090301;28;19959;-73
2023/07/06 03:22:05;;;;;;;;;;;;;;;22.08;68.13;98034.13;5086884;28;19935;-74
2023/07/06 03:27:12;;;;;;;;;;;;;;;22.01;68.67;98042.00;5090888;28;19924;-73
2023/07/06 03:29:38;;;;;;;;;;;;;;;22.09;68.76;98046.59;5087473;28;19924;-73
2023/07/06 03:32:06;;;;;;;;;;;;;;;21.86;69.40;98045.31;5108809;28;19948;-73
2023/07/06 03:34:34;;;;;;;;;;;;;;;21.89;69.88;98048.19;5096594;28;19940;-73
2023/07/06 03:37:02;;;;;;;;;;;;;;;21.99;69.89;98060.59;5096134;28;19956;-73
2023/07/06 03:39:29;;;;;;;;;;;;;;;22.08;69.11;98049.63;5085202;28;19924;-73
2023/07/06 03:41:55;;;;;;;;;;;;;;;22.17;68.77;98058.50;5086813;28;19935;-73
2023/07/06 03:44:24;;;;;;;;;;;;;;;22.16;68.47;98057.72;5090326;28;19935;-73
2023/07/06 03:46:50;;;;;;;;;;;;;;;22.18;68.24;98063.63;5090406;28;19929;-73
2023/07/06 03:49:16;;;;;;;;;;;;;;;22.16;68.75;98065.88;5090385;28;19924;-73
2023/07/06 03:51:46;;;;;;;;;;;;;;;22.08;70.89;98069.47;5092132;28;19924;-73
2023/07/06 03:54:12;;;;;;;;;;;;;;;21.62;75.74;98075.09;5094050;28;19924;-73
2023/07/06 03:56:39;;;;;;;;;;;;;;;21.60;76.43;98071.91;5093931;28;19924;-73
2023/07/06 03:59:06;;;;;;;;;;;;;;;21.65;75.96;98075.22;5093837;28;19924;-73
2023/07/06 04:01:32;;;;;;;;;;;;;;;21.84;75.22;98072.84;5093849;28;19924;-74
2023/07/06 04:03:59;;;;;;;;;;;;;;;21.40;77.37;98071.56;5084220;28;19924;-73
2023/07/06 04:06:26;;;;;;;;;;;;;;;21.16;80.25;98073.31;5093713;28;19925;-73
2023/07/06 04:08:56;;;;;;;;;;;;;;;20.51;86.72;98066.34;5093703;28;19988;-73
2023/07/06 04:11:23;;;;;;;;;;;;;;;19.98;92.04;98082.97;5086242;28;19928;-73
2023/07/06 04:13:49;;;;;;;;;;;;;;;20.36;90.35;98073.06;5094105;28;19924;-73
2023/07/06 04:16:17;;;;;;;;;;;;;;;19.80;95.96;98075.97;5096814;28;19992;-72
2023/07/06 04:18:45;;;;;;;;;;;;;;;20.48;91.19;98079.75;5093884;28;19963;-72
2023/07/06 04:21:12;;;;;;;;;;;;;;;20.64;88.51;98080.84;5092295;28;19924;-72
2023/07/06 04:23:38;;;;;;;;;;;;;;;20.86;87.61;98091.44;5083917;28;19925;-73
2023/07/06 04:26:06;;;;;;;;;;;;;;;21.12;85.52;98088.66;5093477;28;19975;-73
2023/07/06 04:28:33;;;;;;;;;;;;;;;21.25;85.18;98076.78;5093553;28;19924;-73
2023/07/06 04:30:59;;;;;;;;;;;;;;;21.29;85.79;98085.88;5093240;28;19932;-73
2023/07/06 04:33:25;;;;;;;;;;;;;;;21.39;85.03;98083.53;5093217;28;19924;-73
2023/07/06 04:35:53;;;;;;;;;;;;;;;21.56;85.42;98090.81;5093292;28;19962;-73
2023/07/06 04:38:19;;;;;;;;;;;;;;;21.63;86.43;98087.56;5093194;28;19924;-73
2023/07/06 04:40:45;;;;;;;;;;;;;;;21.59;87.50;98078.47;5093478;28;20298;-73
2023/07/06 04:43:14;;;;;;;;;;;;;;;21.50;90.34;98083.97;5091852;28;19954;-73
2023/07/06 04:45:40;;;;;;;;;;;;;;;21.64;88.86;98080.97;5083531;28;19946;-72
2023/07/06 04:48:07;;;;;;;;;;;;;;;21.72;91.27;98080.16;5092940;28;19964;-73
2023/07/06 04:50:37;;;;;;;;;;;;;;;21.75;91.84;98080.28;5092889;28;19924;-73
2023/07/06 04:53:07;;;;;;;;;;;;;;;21.65;94.18;98075.22;5092746;28;20470;-73
2023/07/06 04:55:34;;;;;;;;;;;;;;;20.89;100.00;98077.22;5092656;28;19999;-73
2023/07/06 04:58:01;;;;;;;;;;;;;;;20.22;100.00;98086.00;5092589;28;20011;-73
2023/07/06 05:00:30;;;;;;;;;;;;;;;20.23;100.00;98076.75;5086858;28;19924;-73
2023/07/06 05:02:58;;;;;;;;;;;;;;;20.34;100.00;98079.94;5088426;28;19924;-73
2023/07/06 05:05:25;;;;;;;;;;;;;;;20.84;100.00;98088.25;5093930;28;19924;-73
2023/07/06 05:07:51;;;;;;;;;;;;;;;21.04;100.00;98087.56;5093246;28;19939;-73
2023/07/06 05:10:18;;;;;;;;;;;;;;;20.88;100.00;98081.06;5093014;28;19925;-73
2023/07/06 05:12:45;;;;;;;;;;;;;;;21.00;100.00;98084.69;5084703;28;20000;-73
2023/07/06 05:15:11;;;;;;;;;;;;;;;20.84;100.00;98088.25;5090915;28;19928;-73
2023/07/06 05:17:40;;;;;;;;;;;;;;;20.22;100.00;98094.13;5092168;28;20323;-73
2023/07/06 05:20:07;;;;;;;;;;;;;;;20.00;100.00;98099.72;5091976;28;19924;-73
2023/07/06 05:22:38;;;;;;;;;;;;;;;19.81;100.00;98101.94;5092265;28;19935;-73
2023/07/06 05:25:05;;;;;;;;;;;;;;;20.08;100.00;98096.22;5092481;28;19980;-73
2023/07/06 05:27:31;;;;;;;;;;;;;;;20.28;100.00;98098.28;5092053;28;19936;-73
2023/07/06 05:29:59;;;;;;;;;;;;;;;20.65;100.00;98095.97;5091046;28;21252;-73
2023/07/06 05:32:26;;;;;;;;;;;;;;;20.68;100.00;98100.75;5092043;28;19992;-73
2023/07/06 05:34:54;;;;;;;;;;;;;;;20.83;100.00;98102.94;5091794;28;19936;-73
2023/07/06 05:37:20;;;;;;;;;;;;;;;20.95;100.00;98094.94;5092147;28;19931;-74
2023/07/06 05:39:47;;;;;;;;;;;;;;;20.90;100.00;98101.34;5091715;28;19931;-73
2023/07/06 05:42:13;;;;;;;;;;;;;;;20.32;100.00;98103.88;5091715;28;19950;-73
2023/07/06 05:44:40;;;;;;;;;;;;;;;19.98;100.00;98104.66;5091640;28;19925;-73
2023/07/06 05:47:07;;;;;;;;;;;;;;;20.79;100.00;98104.72;5091665;28;19931;-73
2023/07/06 05:49:33;;;;;;;;;;;;;;;21.09;100.00;98100.97;5091543;28;19984;-73
2023/07/06 05:52:01;;;;;;;;;;;;;;;21.45;100.00;98103.16;5091588;28;19974;-73
2023/07/06 05:54:27;;;;;;;;;;;;;;;21.82;100.00;98115.06;5091716;28;19936;-73
2023/07/06 05:56:55;;;;;;;;;;;;;;;21.92;100.00;98112.78;5091524;28;19924;-73
2023/07/06 05:59:24;;;;;;;;;;;;;;;21.95;100.00;98117.56;5083215;28;20578;-73
2023/07/06 06:01:50;;;;;;;;;;;;;;;21.88;100.00;98111.84;5090459;28;19925;-73
2023/07/06 06:04:17;;;;;;;;;;;;;;;22.03;100.00;98108.53;5091431;28;19963;-73
2023/07/06 06:06:47;;;;;;;;;;;;;;;22.35;100.00;98108.91;5091523;28;19996;-73
2023/07/06 06:09:15;;;;;;;;;;;;;;;22.25;100.00;98114.78;5082443;28;20007;-73
2023/07/06 06:11:41;;;;;;;;;;;;;;;22.55;100.00;98114.31;5091251;28;19928;-73
2023/07/06 06:14:08;;;;;;;;;;;;;;;22.49;99.30;98110.22;5090951;28;19959;-73
2023/07/06 06:16:35;;;;;;;;;;;;;;;22.58;98.92;98119.09;5091142;28;19988;-73
2023/07/06 06:19:01;;;;;;;;;;;;;;;22.67;99.07;98116.31;5089852;28;19928;-74
2023/07/06 06:21:29;;;;;;;;;;;;;;;22.25;100.00;98115.56;5091216;28;19932;-74
2023/07/06 06:23:57;;;;;;;;;;;;;;;22.29;100.00;98116.50;5091013;28;19956;-74
2023/07/06 06:26:25;;;;;;;;;;;;;;;21.99;100.00;98120.44;5090931;28;19978;-74
2023/07/06 06:28:51;;;;;;;;;;;;;;;21.10;100.00;98124.28;5091019;28;19925;-73
2023/07/06 06:31:17;;;;;;;;;;;;;;;21.48;100.00;98127.75;5091076;28;19959;-73
2023/07/06 06:33:45;;;;;;;;;;;;;;;21.64;100.00;98121.75;5091060;28;19995;-73
2023/07/06 06:36:12;;;;;;;;;;;;;;;21.65;100.00;98123.34;5091042;28;19956;-73
2023/07/06 06:38:39;;;;;;;;;;;;;;;21.98;100.00;98121.53;5090827;28;19960;-72
2023/07/06 06:41:07;;;;;;;;;;;;;;;22.26;100.00;98132.69;5090587;28;19925;-73
2023/07/06 06:43:36;;;;;;;;;;;;;;;22.47;100.00;98128.00;5090919;28;19928;-73
2023/07/06 06:46:03;;;;;;;;;;;;;;;22.80;99.67;98126.09;5091030;28;19967;-73
2023/07/06 06:48:30;;;;;;;;;;;;;;;23.13;95.06;98128.75;5090839;28;19924;-73
2023/07/06 06:50:56;;;;;;;;;;;;;;;23.20;94.15;98131.72;5089343;28;19948;-73
2023/07/06 06:53:23;;;;;;;;;;;;;;;23.20;95.27;98126.28;5091182;28;20474;-73
2023/07/06 06:55:49;;;;;;;;;;;;;;;23.34;93.79;98132.16;5081476;28;19928;-73
2023/07/06 06:58:16;;;;;;;;;;;;;;;23.50;92.42;98133.09;5090595;28;19975;-73
2023/07/06 07:00:44;;;;;;;;;;;;;;;23.37;92.28;98130.69;5090820;28;19934;-73
2023/07/06 07:03:11;;;;;;;;;;;;;;;23.48;92.84;98132.66;5090834;28;19925;-73
2023/07/06 07:05:38;;;;;;;;;;;;;;;23.67;91.79;98135.59;5091141;28;19951;-73
2023/07/06 07:08:04;;;;;;;;;;;;;;;23.86;90.78;98128.75;5090824;28;19925;-73
2023/07/06 07:10:31;;;;;;;;;;;;;;;23.87;89.95;98133.06;5090933;28;19924;-73
2023/07/06 07:12:57;;;;;;;;;;;;;;;23.31;92.72;98135.56;5090794;28;20071;-73
2023/07/06 07:15:24;;;;;;;;;;;;;;;23.22;93.89;98134.88;5090936;28;19925;-75
2023/07/06 07:17:55;;;;;;;;;;;;;;;23.02;94.29;98139.31;5090792;28;19947;-73
2023/07/06 07:20:21;;;;;;;;;;;;;;;23.33;92.50;98135.25;5082203;28;20345;-74
2023/07/06 07:22:48;;;;;;;;;;;;;;;22.95;92.94;98138.28;5090327;28;19924;-73
2023/07/06 07:25:17;;;;;;;;;;;;;;;22.57;94.81;98130.31;5090567;28;19920;-73
2023/07/06 07:27:43;;;;;;;;;;;;;;;23.16;94.35;98138.97;5094192;28;19925;-73
2023/07/06 07:30:10;;;;;;;;;;;;;;;22.49;95.26;98136.66;5094231;28;19925;-73
2023/07/06 07:32:37;;;;;;;;;;;;;;;22.24;97.31;98124.88;5094373;28;19924;-72
2023/07/06 07:35:05;;;;;;;;;;;;;;;22.97;94.45;98131.34;5084911;28;19964;-73
2023/07/06 07:37:31;;;;;;;;;;;;;;;23.89;86.53;98123.38;5094669;28;20030;-73
2023/07/06 07:40:00;;;;;;;;;;;;;;;23.97;83.30;98125.19;5084367;28;19978;-73
2023/07/06 07:42:26;;;;;;;;;;;;;;;24.17;82.61;98126.19;5088371;28;19940;-73
2023/07/06 07:44:53;;;;;;;;;;;;;;;24.43;80.04;98128.47;5090218;28;19992;-73
2023/07/06 07:47:20;;;;;;;;;;;;;;;24.63;78.02;98120.06;5094229;28;19947;-73
2023/07/06 07:49:47;;;;;;;;;;;;;;;24.76;75.65;98128.97;5085179;28;19939;-74
2023/07/06 07:52:16;;;;;;;;;;;;;;;24.54;73.88;98118.66;5094850;28;20003;-74
2023/07/06 07:54:43;;;;;;;;;;;;;;;24.81;73.38;98119.75;5094732;28;19951;-73
2023/07/06 07:57:11;;;;;;;;;;;;;;;24.19;67.96;98126.66;5094051;28;19924;-72
2023/07/06 07:59:38;;;;;;;;;;;;;;;23.85;70.40;98122.50;5085088;28;20000;-72
2023/07/06 08:02:07;;;;;;;;;;;;;;;24.26;72.20;98134.25;5094192;28;19946;-73
2023/07/06 08:04:34;;;;;;;;;;;;;;;23.65;65.20;98126.97;5094293;28;19925;-73
2023/07/06 08:07:00;;;;;;;;;;;;;;;23.29;66.50;98126.94;5092662;28;19931;-73
2023/07/06 08:09:28;;;;;;;;;;;;;;;23.85;69.99;98121.72;5093860;28;19925;-74
2023/07/06 08:11:55;;;;;;;;;;;;;;;24.25;64.80;98124.47;5084257;28;19924;-73
2023/07/06 08:14:35;;;;;;;;;;;;;;;24.39;63.57;98122.13;5085664;28;19964;-73
2023/07/06 08:17:04;;;;;;;;;;;;;;;24.87;62.08;98115.66;5093672;28;19936;-73
2023/07/06 08:19:32;;;;;;;;;;;;;;;24.88;56.11;98122.72;5087829;28;19925;-73
2023/07/06 08:21:58;;;;;;;;;;;;;;;23.45;55.95;98116.19;5092971;28;19987;-74
2023/07/06 08:24:25;;;;;;;;;;;;;;;23.10;57.71;98129.44;5092408;28;20019;-74
2023/07/06 08:26:52;;;;;;;;;;;;;;;24.32;59.44;98113.75;5084619;28;19931;-73
2023/07/06 08:29:19;;;;;;;;;;;;;;;24.99;55.46;98112.84;5093356;28;19993;-74
2023/07/06 08:31:47;;;;;;;;;;;;;;;24.11;50.62;98111.19;5093680;28;19924;-72
2023/07/06 08:34:16;;;;;;;;;;;;;;;23.81;49.72;98115.34;5093854;28;19951;-72
2023/07/06 08:36:43;;;;;;;;;;;;;;;23.43;51.58;98116.53;5093488;28;19928;-73
2023/07/06 08:39:10;;;;;;;;;;;;;;;24.38;52.82;98124.06;5093281;28;19924;-73
2023/07/06 08:41:37;;;;;;;;;;;;;;;24.56;51.98;98106.25;5093069;28;19947;-73
2023/07/06 08:44:07;;;;;;;;;;;;;;;24.75;51.78;98105.56;5092812;28;19940;-73
2023/07/06 08:46:36;;;;;;;;;;;;;;;25.20;51.40;98111.41;5092980;28;19995;-73
2023/07/06 08:49:03;;;;;;;;;;;;;;;24.28;49.29;98107.38;5093020;28;19936;-73
2023/07/06 08:51:35;;;;;;;;;;;;;;;23.86;50.24;98106.94;5092828;28;19924;-73
2023/07/06 08:54:02;;;;;;;;;;;;;;;24.43;52.82;98104.72;5092703;28;19924;-73
2023/07/06 08:56:29;;;;;;;;;;;;;;;24.10;53.54;98106.88;5087448;28;19924;-73
2023/07/06 08:58:57;;;;;;;;;;;;;;;24.99;52.92;98096.44;5089348;28;19974;-73
2023/07/06 09:01:26;;;;;;;;;;;;;;;24.51;51.80;98103.75;5092815;28;19964;-73
2023/07/06 09:03:55;;;;;;;;;;;;;;;24.33;50.61;98088.81;5093422;28;19924;-73
2023/07/06 09:06:23;;;;;;;;;;;;;;;23.62;51.83;98092.19;5084664;28;19931;-73
2023/07/06 09:08:53;;;;;;;;;;;;;;;23.39;52.30;98099.28;5092467;28;19966;-74
2023/07/06 09:11:22;;;;;;;;;;;;;;;25.08;52.60;98086.13;5082841;28;19960;-74
2023/07/06 09:13:50;;;;;;;;;;;;;;;25.45;52.05;98084.66;5083852;28;19925;-74
2023/07/06 09:16:19;;;;;;;;;;;;;;;25.69;52.08;98089.94;5091706;28;19928;-74
2023/07/06 09:18:47;;;;;;;;;;;;;;;25.86;51.29;98082.47;5092329;28;19968;-74
2023/07/06 09:21:16;;;;;;;;;;;;;;;25.51;49.33;98090.69;5092157;28;19947;-74
2023/07/06 09:23:45;;;;;;;;;;;;;;;25.38;51.53;98089.97;5082854;28;19924;-74
2023/07/06 09:26:16;;;;;;;;;;;;;;;26.19;50.43;98088.28;5092164;28;19947;-73
2023/07/06 09:28:43;;;;;;;;;;;;;;;26.35;50.00;98090.94;5092352;28;19939;-74
2023/07/06 09:31:16;;;;;;;;;;;;;;;26.11;49.96;98092.00;5092427;28;19924;-74
2023/07/06 09:33:43;;;;;;;;;;;;;;;26.25;49.82;98090.38;5092032;28;19970;-74
2023/07/06 09:36:14;;;;;;;;;;;;;;;25.13;49.92;98086.66;5092269;28;19924;-74
2023/07/06 09:38:43;;;;;;;;;;;;;;;25.99;50.59;98086.66;5092015;28;19984;-74
2023/07/06 09:41:19;;;;;;;;;;;;;;;25.71;49.58;98095.06;5091574;28;19925;-74
2023/07/06 09:43:46;;;;;;;;;;;;;;;25.11;48.39;98094.41;5091650;28;19947;-74
2023/07/06 09:46:14;;;;;;;;;;;;;;;24.37;50.41;98087.00;5082370;28;19931;-74
2023/07/06 09:48:42;;;;;;;;;;;;;;;24.21;50.69;98094.34;5084140;28;19925;-74
2023/07/06 09:51:13;;;;;;;;;;;;;;;24.78;50.70;98082.22;5089950;28;19959;-73
2023/07/06 09:53:44;;;;;;;;;;;;;;;25.50;50.95;98080.91;5081924;28;19931;-73
2023/07/06 09:56:11;;;;;;;;;;;;;;;25.66;48.98;98089.84;5091299;28;19964;-74
2023/07/06 09:58:38;;;;;;;;;;;;;;;25.78;50.14;98078.78;5091612;28;19930;-73
2023/07/06 10:01:10;;;;;;;;;;;;;;;25.70;48.58;98080.59;5081848;28;19924;-74
2023/07/06 10:03:41;;;;;;;;;;;;;;;25.22;48.10;98068.13;5091547;28;19928;-74
2023/07/06 10:06:13;;;;;;;;;;;;;;;24.80;49.04;98069.78;5091292;28;19991;-74
2023/07/06 10:08:44;;;;;;;;;;;;;;;24.89;50.27;98066.91;5084168;28;19925;-74
2023/07/06 10:11:16;;;;;;;;;;;;;;;24.76;49.70;98073.59;5089917;28;19920;-73
2023/07/06 10:13:47;;;;;;;;;;;;;;;24.72;50.30;98065.31;5091263;28;19966;-74
2023/07/06 10:16:21;;;;;;;;;;;;;;;25.84;50.78;98071.91;5081962;28;19935;-73
2023/07/06 10:18:50;;;;;;;;;;;;;;;26.28;48.56;98061.47;5091329;28;19924;-74
2023/07/06 10:21:21;;;;;;;;;;;;;;;25.30;48.98;98077.28;5089474;28;19944;-74
2023/07/06 10:23:54;;;;;;;;;;;;;;;25.36;49.78;98066.88;5090876;28;19924;-74
2023/07/06 10:26:28;;;;;;;;;;;;;;;26.28;49.71;98058.72;5086597;28;19925;-74
2023/07/06 10:28:58;;;;;;;;;;;;;;;26.38;49.78;98068.31;5082653;28;19931;-75
2023/07/06 10:31:28;;;;;;;;;;;;;;;25.73;46.86;98060.72;5083286;28;20277;-74
2023/07/06 10:33:57;;;;;;;;;;;;;;;25.24;48.61;98060.38;5090963;28;19955;-74
2023/07/06 10:36:26;;;;;;;;;;;;;;;25.59;48.77;98057.66;5082888;28;19928;-74
2023/07/06 10:38:54;;;;;;;;;;;;;;;25.43;47.94;98065.09;5090923;28;19975;-74
2023/07/06 10:41:27;;;;;;;;;;;;;;;24.75;47.20;98070.06;5091171;28;19979;-74
2023/07/06 10:43:56;;;;;;;;;;;;;;;25.21;48.45;98073.94;5091040;28;19935;-73
2023/07/06 10:46:31;;;;;;;;;;;;;;;25.01;47.09;98058.63;5083262;28;19932;-74
2023/07/06 10:48:59;;;;;;;;;;;;;;;25.47;48.54;98067.91;5091485;28;19925;-75
2023/07/06 10:51:26;;;;;;;;;;;;;;;25.71;47.68;98056.75;5091441;28;19979;-75
2023/07/06 10:54:08;;;;;;;;;;;;;;;25.21;47.31;98063.03;5091416;28;19936;-73
2023/07/06 10:56:36;;;;;;;;;;;;;;;24.87;47.78;98058.28;5084500;28;20571;-75
2023/07/06 10:59:04;;;;;;;;;;;;;;;25.70;48.81;98055.97;5090753;28;19935;-74
2023/07/06 11:01:37;;;;;;;;;;;;;;;25.32;47.20;98047.66;5089776;28;19924;-74
2023/07/06 11:04:23;;;;;;;;;;;;;;;26.12;47.98;98049.81;5090400;28;19950;-75
2023/07/06 11:06:52;;;;;;;;;;;;;;;25.87;46.97;98040.28;5090424;28;19924;-74
2023/07/06 11:09:18;;;;;;;;;;;;;;;26.37;47.55;98045.59;5090507;28;20010;-74
2023/07/06 11:12:01;;;;;;;;;;;;;;;26.69;47.58;98043.44;5090374;28;19924;-74
2023/07/06 11:14:38;;;;;;;;;;;;;;;26.87;47.99;98049.25;5082977;28;19924;-75
2023/07/06 11:17:13;;;;;;;;;;;;;;;27.10;47.00;98052.78;5090271;28;19948;-75
2023/07/06 11:19:41;;;;;;;;;;;;;;;27.11;45.67;98048.88;5090401;28;19964;-75
2023/07/06 11:22:10;;;;;;;;;;;;;;;27.14;47.43;98048.91;5090423;28;19925;-74
2023/07/06 11:24:39;;;;;;;;;;;;;;;27.28;46.32;98042.88;5090249;28;19924;-73
2023/07/06 11:27:12;;;;;;;;;;;;;;;26.71;46.94;98047.41;5090239;28;19992;-74
2023/07/06 11:29:40;;;;;;;;;;;;;;;27.09;48.46;98041.00;5090413;28;20543;-74
2023/07/06 11:32:17;;;;;;;;;;;;;;;27.20;48.28;98052.16;5090188;28;19924;-74
2023/07/06 11:34:48;;;;;;;;;;;;;;;27.32;47.87;98043.72;5090344;28;19932;-74
2023/07/06 11:37:22;;;;;;;;;;;;;;;27.33;45.72;98050.78;5090370;28;19920;-73
2023/07/06 11:39:55;;;;;;;;;;;;;;;27.22;47.07;98056.09;5090577;28;19932;-73
2023/07/06 11:42:28;;;;;;;;;;;;;;;27.08;44.21;98046.88;5082192;28;19925;-74
2023/07/06 11:44:56;;;;;;;;;;;;;;;27.06;44.29;98046.44;5090683;28;19925;-73
2023/07/06 11:47:27;;;;;;;;;;;;;;;27.08;46.19;98044.13;5082382;28;19943;-74
2023/07/06 11:49:56;;;;;;;;;;;;;;;27.20;44.18;98035.72;5090033;28;20011;-74
2023/07/06 11:52:24;;;;;;;;;;;;;;;26.88;45.38;98035.19;5082052;28;20432;-74
2023/07/06 11:55:04;;;;;;;;;;;;;;;27.05;46.66;98039.38;5090098;28;19992;-74
2023/07/06 11:57:42;;;;;;;;;;;;;;;27.17;46.47;98041.94;5083120;28;19950;-74
2023/07/06 12:00:32;;;;;;;;;;;;;;;26.55;44.67;98038.53;5090340;28;19947;-74
2023/07/06 12:03:00;;;;;;;;;;;;;;;26.34;44.33;98037.34;5090015;28;19924;-74
2023/07/06 12:05:29;;;;;;;;;;;;;;;26.44;45.59;98039.47;5089878;28;19984;-74
2023/07/06 12:07:57;;;;;;;;;;;;;;;26.74;45.08;98045.88;5089978;28;20020;-74
2023/07/06 12:10:23;;;;;;;;;;;;;;;26.20;45.81;98026.91;5080626;28;20364;-74
2023/07/06 12:12:52;;;;;;;;;;;;;;;26.57;46.20;98033.47;5082567;28;20034;-74
2023/07/06 12:15:21;;;;;;;;;;;;;;;26.79;46.10;98032.69;5093360;28;19966;-74
2023/07/06 12:17:49;;;;;;;;;;;;;;;27.00;46.01;98031.47;5093550;28;19935;-74
2023/07/06 12:20:16;;;;;;;;;;;;;;;26.73;43.78;98031.41;5083759;28;19924;-74
2023/07/06 12:22:52;;;;;;;;;;;;;;;26.78;45.17;98033.81;5088032;28;19925;-74
2023/07/06 12:25:18;;;;;;;;;;;;;;;26.82;44.07;98022.97;5093299;28;19924;-74
2023/07/06 12:27:45;;;;;;;;;;;;;;;26.87;43.10;98025.38;5093271;28;19983;-74
2023/07/06 12:30:14;;;;;;;;;;;;;;;26.86;44.93;98025.75;5093200;28;19959;-74
2023/07/06 12:32:43;;;;;;;;;;;;;;;26.98;44.30;98028.31;5093335;28;19924;-74
2023/07/06 12:35:11;;;;;;;;;;;;;;;26.98;43.03;98022.81;5093172;28;19924;-75
2023/07/06 12:37:41;;;;;;;;;;;;;;;26.80;42.81;98022.53;5093205;28;19992;-73
2023/07/06 12:40:18;;;;;;;;;;;;;;;26.76;43.92;98013.44;5093608;28;19924;-74
2023/07/06 12:42:45;;;;;;;;;;;;;;;26.39;43.25;98015.13;5094122;28;19928;-74
2023/07/06 12:45:14;;;;;;;;;;;;;;;26.53;43.16;98018.09;5094970;28;19931;-74
2023/07/06 12:47:43;;;;;;;;;;;;;;;26.23;43.82;98007.00;5094402;28;19925;-74
2023/07/06 12:50:14;;;;;;;;;;;;;;;26.77;45.37;98013.06;5083412;28;19925;-75
2023/07/06 12:52:41;;;;;;;;;;;;;;;27.02;43.09;98013.47;5091702;28;19928;-74
2023/07/06 12:55:13;;;;;;;;;;;;;;;26.22;42.30;98011.69;5092762;28;19932;-74